Time;durP1;ratioP1;P1;durP2;ratioP2;P2;SDS_P1;SDS_P2;PMS_P1;PMS_P2;Temp;Humidity;BMP_temperature;BMP_pressure;BME280_temperature;BME280_humidity;BME280_pressure;Samples;Min_cycle;Max_cycle;Signal;HPM_P1;HPM_P2
2022/06/26 00:01:23;;;;;;;5.65;5.15;;;19.50;99.90;;;;;;5025187;28;20508;-36
2022/06/26 00:03:49;;;;;;;5.03;4.53;;;19.60;99.90;;;;;;5024842;28;20025;-35
2022/06/26 00:06:14;;;;;;;4.07;3.67;;;19.60;99.90;;;;;;5024593;28;20337;-35
2022/06/26 00:08:40;;;;;;;4.50;4.10;;;19.60;99.90;;;;;;5025072;28;20059;-36
2022/06/26 00:11:07;;;;;;;6.00;5.40;;;19.60;99.90;;;;;;5025457;28;20052;-35
2022/06/26 00:13:32;;;;;;;5.47;4.97;;;19.50;99.90;;;;;;5019514;28;20049;-35
2022/06/26 00:15:58;;;;;;;5.90;5.40;;;19.50;99.90;;;;;;5005446;28;20079;-36
2022/06/26 00:18:24;;;;;;;6.22;5.70;;;19.60;99.90;;;;;;5014477;28;20029;-36
2022/06/26 00:20:49;;;;;;;6.15;5.57;;;19.60;99.90;;;;;;5011319;28;20032;-36
2022/06/26 00:23:15;;;;;;;5.93;5.43;;;19.60;99.90;;;;;;5017147;28;20025;-34
2022/06/26 00:25:41;;;;;;;5.63;5.13;;;19.60;99.90;;;;;;5013360;28;20488;-36
2022/06/26 00:28:06;;;;;;;5.82;5.32;;;19.60;99.90;;;;;;5014401;28;20045;-34
2022/06/26 00:30:32;;;;;;;7.53;5.50;;;19.60;99.90;;;;;;5016877;28;20613;-36
2022/06/26 00:32:57;;;;;;;6.30;5.70;;;19.60;99.90;;;;;;5010607;28;20032;-36
2022/06/26 00:35:23;;;;;;;5.90;5.40;;;19.60;99.90;;;;;;5023760;28;20477;-35
2022/06/26 00:37:48;;;;;;;7.50;6.70;;;19.60;99.90;;;;;;5028003;28;20026;-36
2022/06/26 00:40:14;;;;;;;6.40;5.80;;;19.60;99.90;;;;;;5017202;28;20408;-34
2022/06/26 00:42:40;;;;;;;6.25;5.70;;;19.60;99.90;;;;;;5028244;28;20035;-34
2022/06/26 00:45:07;;;;;;;5.63;5.13;;;19.70;99.90;;;;;;5017552;28;20025;-34
2022/06/26 00:47:33;;;;;;;6.35;5.85;;;19.70;99.90;;;;;;5027784;28;20095;-34
2022/06/26 00:49:58;;;;;;;5.70;5.20;;;19.70;99.90;;;;;;5016638;28;20026;-35
2022/06/26 00:52:24;;;;;;;6.55;5.35;;;19.70;99.90;;;;;;5027991;28;20508;-36
2022/06/26 00:54:51;;;;;;;6.40;5.78;;;19.70;99.90;;;;;;5016006;28;20389;-36
2022/06/26 00:57:18;;;;;;;6.70;6.10;;;19.70;99.90;;;;;;5028493;28;20026;-36
2022/06/26 00:59:43;;;;;;;6.80;6.20;;;19.70;99.90;;;;;;5018075;28;20128;-37
2022/06/26 01:02:09;;;;;;;6.65;6.00;;;19.70;99.90;;;;;;5024987;28;20021;-36
2022/06/26 01:04:35;;;;;;;6.65;6.05;;;19.70;99.90;;;;;;5019662;28;20367;-36
2022/06/26 01:07:01;;;;;;;6.57;6.00;;;19.70;99.90;;;;;;5022882;28;20138;-37
2022/06/26 01:09:27;;;;;;;6.60;5.90;;;19.70;99.90;;;;;;5022257;28;20028;-35
2022/06/26 01:11:53;;;;;;;6.47;5.97;;;19.70;99.90;;;;;;5021678;28;20029;-35
2022/06/26 01:14:20;;;;;;;7.18;6.00;;;19.70;99.90;;;;;;5025727;28;20476;-35
2022/06/26 01:16:45;;;;;;;6.38;5.78;;;19.70;99.90;;;;;;5016475;28;20479;-34
2022/06/26 01:19:15;;;;;;;6.70;5.72;;;19.80;99.90;;;;;;5022833;28;20014;-36
2022/06/26 01:21:41;;;;;;;6.18;5.63;;;19.80;99.90;;;;;;5027617;28;20041;-36
2022/06/26 01:24:07;;;;;;;6.57;6.00;;;19.70;99.90;;;;;;5028417;28;20068;-36
2022/06/26 01:26:35;;;;;;;7.13;6.53;;;19.70;99.90;;;;;;5028068;28;20108;-34
2022/06/26 01:29:01;;;;;;;7.45;6.38;;;19.70;99.90;;;;;;5026990;28;20038;-35
2022/06/26 01:31:26;;;;;;;7.13;5.85;;;19.60;99.90;;;;;;5027423;28;20427;-35
2022/06/26 01:33:52;;;;;;;6.63;5.97;;;19.60;99.90;;;;;;5028398;28;20033;-34
2022/06/26 01:36:17;;;;;;;6.75;6.15;;;19.60;99.90;;;;;;5026865;28;20026;-35
2022/06/26 01:38:43;;;;;;;7.32;6.68;;;19.60;99.90;;;;;;5028185;28;20111;-34
2022/06/26 01:41:09;;;;;;;6.47;5.88;;;19.60;99.90;;;;;;5027903;28;20028;-33
2022/06/26 01:43:36;;;;;;;6.55;6.05;;;19.50;99.90;;;;;;5026377;28;20520;-35
2022/06/26 01:46:03;;;;;;;7.43;6.72;;;19.50;99.90;;;;;;5027459;28;20056;-35
2022/06/26 01:48:30;;;;;;;7.30;6.70;;;19.50;99.90;;;;;;5027682;28;20034;-35
2022/06/26 01:50:57;;;;;;;7.75;7.15;;;19.40;99.90;;;;;;5026826;28;20678;-33
2022/06/26 01:53:24;;;;;;;7.50;6.80;;;19.40;99.90;;;;;;5026941;28;20060;-35
2022/06/26 01:55:49;;;;;;;7.88;6.78;;;19.40;99.90;;;;;;5027469;28;20045;-35
2022/06/26 01:58:15;;;;;;;7.90;7.20;;;19.40;99.90;;;;;;5026113;28;20025;-34
2022/06/26 02:00:44;;;;;;;7.20;6.60;;;19.40;99.90;;;;;;5027245;28;20111;-35
2022/06/26 02:03:10;;;;;;;7.32;6.72;;;19.40;99.90;;;;;;5027610;28;20025;-35
2022/06/26 02:05:36;;;;;;;7.47;6.78;;;19.40;99.90;;;;;;5026544;28;20918;-35
2022/06/26 02:08:03;;;;;;;7.50;6.80;;;19.40;99.90;;;;;;5027310;28;20480;-35
2022/06/26 02:16:01;;;;;;;4.90;4.50;;;19.30;99.90;;;;;;5026955;28;20560;-34
2022/06/26 02:18:27;;;;;;;5.82;5.22;;;19.30;99.90;;;;;;5025351;28;20157;-36
2022/06/26 02:20:53;;;;;;;6.47;5.85;;;19.30;99.90;;;;;;5027168;28;20025;-36
2022/06/26 02:23:19;;;;;;;5.95;5.45;;;19.30;99.90;;;;;;5026519;28;20614;-34
2022/06/26 02:25:45;;;;;;;6.32;5.82;;;19.30;99.90;;;;;;5025979;28;20021;-36
2022/06/26 02:28:11;;;;;;;5.47;4.97;;;19.20;99.90;;;;;;5027046;28;20412;-40
2022/06/26 02:30:37;;;;;;;5.93;5.32;;;19.20;99.90;;;;;;5026070;28;20120;-36
2022/06/26 02:33:03;;;;;;;5.93;5.43;;;19.20;99.90;;;;;;5025924;28;20026;-35
2022/06/26 02:35:30;;;;;;;4.35;3.95;;;19.20;99.90;;;;;;5026551;28;20037;-36
2022/06/26 02:37:57;;;;;;;5.18;4.78;;;19.10;99.90;;;;;;5026484;28;20025;-35
2022/06/26 02:40:25;;;;;;;5.53;5.03;;;19.10;99.90;;;;;;5026119;28;20383;-35
2022/06/26 02:42:51;;;;;;;4.80;4.25;;;19.10;99.90;;;;;;5026262;28;20025;-36
2022/06/26 02:45:17;;;;;;;4.82;4.43;;;19.00;99.90;;;;;;5026388;28;20497;-34
2022/06/26 02:47:43;;;;;;;6.47;5.97;;;19.00;99.90;;;;;;5025526;28;20029;-34
2022/06/26 02:50:09;;;;;;;6.18;5.55;;;18.90;99.90;;;;;;5026590;28;20345;-34
2022/06/26 02:52:36;;;;;;;5.32;4.82;;;18.90;99.90;;;;;;5025419;28;20033;-34
2022/06/26 02:55:03;;;;;;;5.75;5.25;;;18.90;99.90;;;;;;5025800;28;20037;-35
2022/06/26 02:57:29;;;;;;;4.45;4.15;;;18.80;99.90;;;;;;5026054;28;20017;-35
2022/06/26 02:59:54;;;;;;;4.93;4.53;;;18.90;99.90;;;;;;5026508;28;20088;-35
2022/06/26 03:02:20;;;;;;;4.07;3.78;;;18.90;99.90;;;;;;5025771;28;20029;-34
2022/06/26 03:04:46;;;;;;;4.25;3.85;;;18.90;99.90;;;;;;5025971;28;20091;-35
2022/06/26 03:07:12;;;;;;;4.75;4.38;;;19.00;99.90;;;;;;5025532;28;20108;-34
2022/06/26 03:09:38;;;;;;;5.60;5.03;;;18.90;99.90;;;;;;5026144;28;20116;-35
2022/06/26 03:12:04;;;;;;;5.40;4.90;;;18.90;99.90;;;;;;5026418;28;20021;-35
2022/06/26 03:14:30;;;;;;;5.93;5.35;;;18.90;99.90;;;;;;5024571;28;20493;-35
2022/06/26 03:16:56;;;;;;;4.90;4.50;;;18.90;99.90;;;;;;5026229;28;20033;-36
2022/06/26 03:19:21;;;;;;;6.50;5.88;;;18.90;99.90;;;;;;5024606;28;20033;-35
2022/06/26 03:21:47;;;;;;;6.20;5.68;;;18.80;99.90;;;;;;5024079;28;20032;-34
2022/06/26 03:24:12;;;;;;;6.60;6.10;;;18.80;99.90;;;;;;5025044;28;20102;-35
2022/06/26 03:26:38;;;;;;;7.03;6.43;;;18.80;99.90;;;;;;5025189;28;20021;-35
2022/06/26 03:29:06;;;;;;;6.72;6.07;;;18.80;99.90;;;;;;5024996;28;20083;-33
2022/06/26 03:31:32;;;;;;;7.97;7.15;;;18.80;99.90;;;;;;5025377;28;20021;-35
2022/06/26 03:33:58;;;;;;;7.25;6.55;;;18.80;99.90;;;;;;5025651;28;20044;-34
2022/06/26 03:36:25;;;;;;;8.55;6.63;;;18.80;99.90;;;;;;5024563;28;20053;-34
2022/06/26 03:38:52;;;;;;;6.97;6.38;;;18.80;99.90;;;;;;5025826;28;20017;-35
2022/06/26 03:41:18;;;;;;;7.47;6.78;;;18.80;99.90;;;;;;5025374;28;20033;-36
2022/06/26 03:43:44;;;;;;;7.47;6.75;;;18.80;99.90;;;;;;5024295;28;20563;-36
2022/06/26 03:46:10;;;;;;;7.60;6.90;;;18.80;99.90;;;;;;5025621;28;20025;-35
2022/06/26 03:48:36;;;;;;;7.38;6.68;;;18.80;99.90;;;;;;5025295;28;20026;-36
2022/06/26 03:51:03;;;;;;;9.15;7.13;;;18.80;99.90;;;;;;5025102;28;20039;-34
2022/06/26 03:53:28;;;;;;;7.65;6.95;;;18.80;99.90;;;;;;5025155;28;20560;-35
2022/06/26 03:55:54;;;;;;;7.82;7.03;;;18.80;99.90;;;;;;5029459;28;20037;-34
2022/06/26 03:58:20;;;;;;;8.88;7.95;;;18.80;99.90;;;;;;5029526;28;20091;-35
2022/06/26 04:00:46;;;;;;;8.48;7.68;;;18.80;99.90;;;;;;5029406;28;20065;-35
2022/06/26 04:03:11;;;;;;;9.60;8.68;;;18.80;99.90;;;;;;5029870;28;20026;-36
2022/06/26 04:05:37;;;;;;;9.00;8.10;;;18.80;99.90;;;;;;5028488;28;20018;-36
2022/06/26 04:08:04;;;;;;;9.65;8.20;;;18.80;99.90;;;;;;5029304;28;20029;-35
2022/06/26 04:10:30;;;;;;;8.50;7.70;;;18.80;99.90;;;;;;5028271;28;20029;-35
2022/06/26 04:13:00;;;;;;;11.20;10.00;;;18.80;99.90;;;;;;5029951;28;20040;-37
2022/06/26 04:15:27;;;;;;;9.43;7.95;;;18.70;99.90;;;;;;5028891;28;20033;-36
2022/06/26 04:17:52;;;;;;;9.50;8.55;;;18.70;99.90;;;;;;5028615;28;20536;-36
2022/06/26 04:20:18;;;;;;;10.52;9.30;;;18.70;99.90;;;;;;5028746;28;20021;-34
2022/06/26 04:22:43;;;;;;;9.88;8.88;;;18.70;99.90;;;;;;5028838;28;20448;-35
2022/06/26 04:25:09;;;;;;;10.63;9.52;;;18.70;99.90;;;;;;5028344;28;20053;-36
2022/06/26 04:27:35;;;;;;;10.43;9.32;;;18.60;99.90;;;;;;5028025;28;20216;-34
2022/06/26 04:30:00;;;;;;;10.60;9.32;;;18.60;99.90;;;;;;5028463;28;20179;-36
2022/06/26 04:32:26;;;;;;;10.45;9.45;;;18.50;99.90;;;;;;5027070;28;20036;-35
2022/06/26 04:34:52;;;;;;;12.48;10.70;;;18.50;99.90;;;;;;5028815;28;20060;-36
2022/06/26 04:37:18;;;;;;;10.98;9.82;;;18.50;99.90;;;;;;5028296;28;20026;-35
2022/06/26 04:39:44;;;;;;;10.35;9.25;;;18.50;99.90;;;;;;5028041;28;20029;-35
2022/06/26 04:42:09;;;;;;;9.60;8.65;;;18.40;99.90;;;;;;5029094;28;20063;-34
2022/06/26 04:44:35;;;;;;;10.98;8.80;;;18.40;99.90;;;;;;5028206;28;20492;-34
2022/06/26 04:47:00;;;;;;;11.27;9.45;;;18.30;99.90;;;;;;5028354;28;20461;-36
2022/06/26 04:49:26;;;;;;;11.98;9.25;;;18.30;99.90;;;;;;5027911;28;20034;-35
2022/06/26 04:51:51;;;;;;;10.15;8.93;;;18.20;99.90;;;;;;5028531;28;20021;-36
2022/06/26 04:54:17;;;;;;;10.90;9.43;;;18.20;99.90;;;;;;5027907;28;20038;-35
2022/06/26 04:56:42;;;;;;;9.13;8.10;;;18.20;99.90;;;;;;5028522;28;20021;-35
2022/06/26 04:59:08;;;;;;;9.00;8.10;;;18.30;99.90;;;;;;5029126;28;20057;-34
2022/06/26 05:01:35;;;;;;;9.05;8.13;;;18.20;99.90;;;;;;5027814;28;20476;-35
2022/06/26 05:04:01;;;;;;;11.95;9.43;;;18.30;99.90;;;;;;5028897;28;20461;-35
2022/06/26 05:06:27;;;;;;;11.98;10.73;;;18.30;99.90;;;;;;5027225;28;20051;-35
2022/06/26 05:08:52;;;;;;;12.00;9.75;;;18.30;99.90;;;;;;5027313;28;20538;-35
2022/06/26 05:11:19;;;;;;;10.55;8.63;;;18.30;99.90;;;;;;5028744;28;20025;-35
2022/06/26 05:13:44;;;;;;;12.45;11.10;;;18.30;99.90;;;;;;5027377;28;20378;-35
2022/06/26 05:16:10;;;;;;;10.07;9.10;;;18.20;99.90;;;;;;5028496;28;20020;-36
2022/06/26 05:18:35;;;;;;;11.50;10.30;;;18.30;99.90;;;;;;5027788;28;20055;-35
2022/06/26 05:21:01;;;;;;;10.70;9.55;;;18.30;99.90;;;;;;5027421;28;20115;-36
2022/06/26 05:23:26;;;;;;;8.85;7.95;;;18.30;99.90;;;;;;5027322;28;20049;-35
2022/06/26 05:25:52;;;;;;;9.65;8.20;;;18.30;99.90;;;;;;5028033;28;20105;-35
2022/06/26 05:28:18;;;;;;;12.98;10.95;;;18.30;99.90;;;;;;5027327;28;20087;-35
2022/06/26 05:30:43;;;;;;;11.80;9.73;;;18.30;99.90;;;;;;5027666;28;20503;-36
2022/06/26 05:33:09;;;;;;;9.38;8.38;;;18.30;99.90;;;;;;5027908;28;20495;-38
2022/06/26 05:35:35;;;;;;;10.23;8.57;;;18.30;99.90;;;;;;5026266;28;20018;-35
2022/06/26 05:38:01;;;;;;;10.93;8.30;;;18.30;99.90;;;;;;5027242;28;20033;-35
2022/06/26 05:40:27;;;;;;;10.65;9.55;;;18.40;99.90;;;;;;5026914;28;20116;-35
2022/06/26 05:42:57;;;;;;;12.07;10.48;;;18.40;99.90;;;;;;5026675;28;20018;-35
2022/06/26 05:45:23;;;;;;;10.50;8.00;;;18.40;99.90;;;;;;5026798;28;20559;-37
2022/06/26 05:47:49;;;;;;;11.13;8.35;;;18.50;99.90;;;;;;5027434;28;20029;-36
2022/06/26 05:50:14;;;;;;;9.05;7.75;;;18.50;99.90;;;;;;5026270;28;20033;-35
2022/06/26 05:52:40;;;;;;;11.00;9.90;;;18.60;99.90;;;;;;5028022;28;20362;-35
2022/06/26 05:55:06;;;;;;;10.20;9.10;;;18.70;99.90;;;;;;5027711;28;20040;-35
2022/06/26 05:57:32;;;;;;;11.27;8.73;;;18.70;99.90;;;;;;5025691;28;20573;-36
2022/06/26 05:59:58;;;;;;;8.65;7.75;;;18.70;99.90;;;;;;5025485;28;20087;-35
2022/06/26 06:02:23;;;;;;;8.95;7.90;;;18.70;99.90;;;;;;5025600;28;20057;-35
2022/06/26 06:04:49;;;;;;;10.00;7.95;;;18.70;99.90;;;;;;5017556;28;20030;-35
2022/06/26 06:07:15;;;;;;;8.48;7.38;;;18.70;99.90;;;;;;5023903;28;20499;-36
2022/06/26 06:09:40;;;;;;;10.38;9.07;;;18.80;99.90;;;;;;5020699;28;20028;-34
2022/06/26 06:12:06;;;;;;;9.00;7.63;;;18.80;99.90;;;;;;5020791;28;20041;-37
2022/06/26 06:14:31;;;;;;;10.43;8.63;;;18.80;99.90;;;;;;5022247;28;20143;-35
2022/06/26 06:16:57;;;;;;;8.68;7.82;;;18.90;99.90;;;;;;5015985;28;20374;-35
2022/06/26 06:19:23;;;;;;;8.50;7.60;;;18.90;99.90;;;;;;5023891;28;20029;-36
2022/06/26 06:21:48;;;;;;;7.18;6.47;;;18.90;99.90;;;;;;5015371;28;20013;-34
2022/06/26 06:24:14;;;;;;;6.57;5.88;;;19.00;99.90;;;;;;5023673;28;20377;-35
2022/06/26 06:26:40;;;;;;;6.80;5.93;;;19.00;99.90;;;;;;5014218;28;20022;-35
2022/06/26 06:29:06;;;;;;;7.78;7.07;;;19.00;99.90;;;;;;5026922;28;20034;-35
2022/06/26 06:31:32;;;;;;;7.55;6.75;;;19.00;99.90;;;;;;5012384;28;20083;-35
2022/06/26 06:33:57;;;;;;;7.70;6.35;;;19.10;99.90;;;;;;5026696;28;20162;-35
2022/06/26 06:36:23;;;;;;;7.90;6.25;;;19.20;99.90;;;;;;5021992;28;20017;-35
2022/06/26 06:38:48;;;;;;;6.40;5.70;;;19.30;99.90;;;;;;5026241;28;20524;-36
2022/06/26 06:41:14;;;;;;;7.57;6.63;;;19.30;99.90;;;;;;5022069;28;20021;-34
2022/06/26 06:43:40;;;;;;;6.50;5.80;;;19.30;99.90;;;;;;5009064;28;20044;-35
2022/06/26 06:46:06;;;;;;;6.68;6.05;;;19.20;99.90;;;;;;5013167;28;20029;-35
2022/06/26 06:48:31;;;;;;;6.13;5.43;;;19.10;99.90;;;;;;5010019;28;20388;-35
2022/06/26 06:50:57;;;;;;;6.82;6.13;;;19.10;99.90;;;;;;5011825;28;20525;-35
2022/06/26 06:53:22;;;;;;;6.32;5.72;;;19.10;99.90;;;;;;5012710;28;20564;-35
2022/06/26 06:55:48;;;;;;;5.32;4.57;;;19.10;99.90;;;;;;5009137;28;20026;-36
2022/06/26 06:58:14;;;;;;;4.13;3.50;;;19.10;99.90;;;;;;5016296;28;20489;-34
2022/06/26 07:00:40;;;;;;;4.93;4.50;;;19.10;99.90;;;;;;5006787;28;20048;-34
2022/06/26 07:03:06;;;;;;;6.25;5.65;;;19.20;99.90;;;;;;5017361;28;20530;-34
2022/06/26 07:05:32;;;;;;;5.75;5.20;;;19.30;99.90;;;;;;5007416;28;20371;-36
2022/06/26 07:07:59;;;;;;;5.18;4.68;;;19.40;99.90;;;;;;5021827;28;20044;-37
2022/06/26 07:10:24;;;;;;;5.80;4.88;;;19.50;99.90;;;;;;5025430;28;20476;-38
2022/06/26 07:12:52;;;;;;;5.30;4.55;;;19.60;99.90;;;;;;5025681;28;20033;-36
2022/06/26 07:15:18;;;;;;;4.45;4.05;;;19.70;99.90;;;;;;5025234;28;20499;-35
2022/06/26 07:17:44;;;;;;;5.13;4.65;;;19.70;99.90;;;;;;5025322;28;20036;-34
2022/06/26 07:20:10;;;;;;;4.85;4.35;;;19.90;99.90;;;;;;5026395;28;20033;-35
2022/06/26 07:22:36;;;;;;;4.15;3.75;;;19.90;99.90;;;;;;5024978;28;20033;-35
2022/06/26 07:25:02;;;;;;;5.30;3.30;;;19.90;99.90;;;;;;5025834;28;20048;-35
2022/06/26 07:27:28;;;;;;;4.05;3.40;;;20.00;99.90;;;;;;5024596;28;20017;-35
2022/06/26 07:29:53;;;;;;;3.90;3.50;;;20.10;99.90;;;;;;5025889;28;20033;-36
2022/06/26 07:32:19;;;;;;;4.15;3.42;;;20.10;99.90;;;;;;5025381;28;20028;-36
2022/06/26 07:34:44;;;;;;;4.10;3.17;;;20.00;99.90;;;;;;5025068;28;20485;-36
2022/06/26 07:37:10;;;;;;;3.10;2.78;;;20.10;99.90;;;;;;5025920;28;20412;-35
2022/06/26 07:39:35;;;;;;;4.53;2.60;;;20.10;99.90;;;;;;5025153;28;20041;-34
2022/06/26 07:42:01;;;;;;;3.80;3.13;;;20.20;99.90;;;;;;5025570;28;20032;-36
2022/06/26 07:44:26;;;;;;;3.47;2.78;;;20.30;99.90;;;;;;5025625;28;20060;-36
2022/06/26 07:46:52;;;;;;;2.53;2.33;;;20.40;99.90;;;;;;5025796;28;20024;-36
2022/06/26 07:49:18;;;;;;;2.70;2.35;;;20.50;99.90;;;;;;5025121;28;20491;-35
2022/06/26 07:51:44;;;;;;;3.60;2.40;;;20.60;99.90;;;;;;5025315;28;20495;-35
2022/06/26 07:54:09;;;;;;;4.10;2.58;;;20.60;99.90;;;;;;5024745;28;20041;-36
2022/06/26 07:56:36;;;;;;;4.85;2.60;;;20.70;99.90;;;;;;5024226;28;20021;-36
2022/06/26 07:59:01;;;;;;;4.93;2.53;;;20.60;99.90;;;;;;5024966;28;20432;-35
2022/06/26 08:01:27;;;;;;;3.63;2.28;;;20.60;99.90;;;;;;5025122;28;20223;-36
2022/06/26 08:03:53;;;;;;;3.53;2.20;;;20.60;99.90;;;;;;5025463;28;20028;-35
2022/06/26 08:06:19;;;;;;;4.25;2.33;;;20.60;99.90;;;;;;5025406;28;20099;-35
2022/06/26 08:08:45;;;;;;;2.75;2.17;;;20.60;99.90;;;;;;5024985;28;20033;-35
2022/06/26 08:11:10;;;;;;;2.80;2.15;;;20.70;99.90;;;;;;5024753;28;20037;-35
2022/06/26 08:13:36;;;;;;;2.50;1.98;;;20.70;99.90;;;;;;5024503;28;20036;-36
2022/06/26 08:16:01;;;;;;;4.13;2.22;;;20.80;99.90;;;;;;5025341;28;20346;-36
2022/06/26 08:18:27;;;;;;;3.28;2.10;;;20.90;99.90;;;;;;5024424;28;20044;-36
2022/06/26 08:20:52;;;;;;;3.75;1.98;;;21.00;99.90;;;;;;5025855;28;20404;-36
2022/06/26 08:23:18;;;;;;;2.67;2.00;;;21.10;99.90;;;;;;5025134;28;20104;-36
2022/06/26 08:25:43;;;;;;;3.65;2.25;;;21.10;99.90;;;;;;5024066;28;20026;-34
2022/06/26 08:28:09;;;;;;;2.40;1.85;;;21.20;99.90;;;;;;5025810;28;20397;-36
2022/06/26 08:30:34;;;;;;;2.33;1.90;;;21.20;99.90;;;;;;5022900;28;20034;-35
2022/06/26 08:33:00;;;;;;;3.00;2.00;;;21.20;99.90;;;;;;5024903;28;20021;-36
2022/06/26 08:35:27;;;;;;;1.52;1.42;;;21.20;99.90;;;;;;5024637;28;20057;-36
2022/06/26 08:37:54;;;;;;;1.70;1.60;;;21.20;99.90;;;;;;5024773;28;20385;-34
2022/06/26 08:40:20;;;;;;;2.88;1.90;;;21.20;99.90;;;;;;5026390;28;20025;-35
2022/06/26 08:42:49;;;;;;;2.95;2.10;;;21.20;99.90;;;;;;5028632;28;20128;-36
2022/06/26 08:45:18;;;;;;;1.73;1.50;;;21.20;99.90;;;;;;5028091;28;20126;-35
2022/06/26 08:47:47;;;;;;;2.50;1.98;;;21.20;99.90;;;;;;5028640;28;20021;-34
2022/06/26 08:50:12;;;;;;;3.10;2.15;;;21.30;99.90;;;;;;5028708;28;20112;-36
2022/06/26 08:52:39;;;;;;;2.88;2.20;;;21.30;99.90;;;;;;5028077;28;20100;-36
2022/06/26 08:55:05;;;;;;;2.90;2.03;;;21.30;99.90;;;;;;5028261;28;20493;-36
2022/06/26 08:57:33;;;;;;;2.35;1.75;;;21.30;99.90;;;;;;5027896;28;20022;-36
2022/06/26 08:59:59;;;;;;;3.20;2.00;;;21.40;99.90;;;;;;5026928;28;20058;-34
2022/06/26 09:02:25;;;;;;;2.42;2.05;;;21.50;99.90;;;;;;5027217;28;20072;-36
2022/06/26 09:04:50;;;;;;;2.00;1.80;;;21.60;99.90;;;;;;5027904;28;20029;-36
2022/06/26 09:07:16;;;;;;;3.03;1.70;;;21.70;99.90;;;;;;5027597;28;20041;-35
2022/06/26 09:09:41;;;;;;;1.83;1.58;;;21.80;99.90;;;;;;5027568;28;20021;-35
2022/06/26 09:12:07;;;;;;;1.88;1.77;;;21.90;99.90;;;;;;5028457;28;20037;-37
2022/06/26 09:14:33;;;;;;;2.90;2.00;;;22.00;99.90;;;;;;5026854;28;20434;-36
2022/06/26 09:16:59;;;;;;;2.60;2.03;;;22.00;99.90;;;;;;5028363;28;20560;-35
2022/06/26 09:19:29;;;;;;;2.50;1.75;;;22.10;99.90;;;;;;5028415;28;20108;-37
2022/06/26 09:22:15;;;;;;;2.00;1.70;;;22.20;99.90;;;;;;5027363;28;20100;-35
2022/06/26 09:24:53;;;;;;;1.63;1.45;;;22.20;99.90;;;;;;5027863;28;20029;-35
2022/06/26 09:27:22;;;;;;;3.20;1.83;;;22.30;99.90;;;;;;5026723;28;20022;-36
2022/06/26 09:29:53;;;;;;;2.70;1.73;;;22.30;99.90;;;;;;5027500;28;20041;-37
2022/06/26 09:32:21;;;;;;;3.05;2.47;;;22.30;99.90;;;;;;5027736;28;20040;-35
2022/06/26 09:34:52;;;;;;;2.00;1.88;;;22.30;99.90;;;;;;5027416;28;20048;-36
2022/06/26 09:37:20;;;;;;;2.85;2.35;;;22.20;99.90;;;;;;5027294;28;20025;-35
2022/06/26 09:39:46;;;;;;;3.15;2.25;;;22.20;99.90;;;;;;5027621;28;20116;-36
2022/06/26 09:42:24;;;;;;;2.60;2.00;;;22.20;99.90;;;;;;5027115;28;20028;-36
2022/06/26 09:44:52;;;;;;;2.22;1.90;;;22.20;99.90;;;;;;5027865;28;20025;-37
2022/06/26 09:47:22;;;;;;;3.67;2.05;;;22.10;99.90;;;;;;5027274;28;20079;-35
2022/06/26 09:49:51;;;;;;;2.15;1.42;;;22.10;99.90;;;;;;5026901;28;20040;-35
2022/06/26 09:52:17;;;;;;;3.70;2.40;;;22.10;99.90;;;;;;5026301;28;20134;-35
2022/06/26 09:54:43;;;;;;;3.60;3.00;;;22.10;99.90;;;;;;5027057;28;20467;-36
2022/06/26 09:57:09;;;;;;;4.25;2.53;;;22.20;99.90;;;;;;5026683;28;20080;-37
2022/06/26 09:59:35;;;;;;;3.45;2.30;;;22.20;99.90;;;;;;5026905;28;20053;-35
2022/06/26 10:07:32;;;;;;;2.65;1.70;;;22.20;99.90;;;;;;5027012;28;20507;-35
2022/06/26 10:09:57;;;;;;;3.42;1.75;;;22.30;99.90;;;;;;5025887;28;20090;-36
2022/06/26 10:12:23;;;;;;;3.30;1.75;;;22.30;99.90;;;;;;5026068;28;20021;-36
2022/06/26 10:14:53;;;;;;;2.03;1.55;;;22.40;99.90;;;;;;5026620;28;20734;-34
2022/06/26 10:18:12;;;;;;;4.95;2.05;;;22.40;99.90;;;;;;5025600;28;20021;-35
2022/06/26 10:20:41;;;;;;;2.55;2.08;;;22.50;99.90;;;;;;4965320;28;20093;-35
2022/06/26 10:23:07;;;;;;;3.33;2.38;;;22.60;99.90;;;;;;5017099;28;20382;-36
2022/06/26 10:25:32;;;;;;;2.88;2.00;;;22.60;99.90;;;;;;5019874;28;20040;-36
2022/06/26 10:28:00;;;;;;;3.00;2.00;;;22.60;99.90;;;;;;5023772;28;20108;-37
2022/06/26 10:30:28;;;;;;;2.67;2.03;;;22.60;99.90;;;;;;5017207;28;20075;-36
2022/06/26 10:33:14;;;;;;;3.08;1.83;;;22.60;99.90;;;;;;5025302;28;20022;-35
2022/06/26 10:35:47;;;;;;;2.35;1.80;;;22.70;99.90;;;;;;5017809;28;20037;-35
2022/06/26 10:38:27;;;;;;;3.28;2.30;;;22.70;99.90;;;;;;5012805;28;20025;-37
2022/06/26 10:44:10;;;;;;;1.88;1.60;;;22.60;99.90;;;;;;5027408;28;20048;-35
2022/06/26 10:46:47;;;;;;;3.15;2.30;;;22.60;99.90;;;;;;5016363;28;20033;-35
2022/06/26 10:49:13;;;;;;;4.20;2.35;;;22.60;99.90;;;;;;5018543;28;20083;-35
2022/06/26 10:51:43;;;;;;;3.95;2.50;;;22.60;99.90;;;;;;5025074;28;20025;-35
2022/06/26 10:54:24;;;;;;;4.63;2.63;;;22.70;99.90;;;;;;5026412;28;20069;-36
2022/06/26 10:57:17;;;;;;;3.08;2.30;;;22.70;99.90;;;;;;5026713;28;20463;-35
2022/06/26 10:59:44;;;;;;;4.97;2.28;;;22.70;99.90;;;;;;5025584;28;20568;-35
2022/06/26 11:02:11;;;;;;;2.42;1.90;;;22.80;99.90;;;;;;5026734;28;20381;-35
2022/06/26 11:04:50;;;;;;;4.03;2.50;;;22.90;99.90;;;;;;5025142;28;20036;-35
2022/06/26 11:07:17;;;;;;;5.70;2.50;;;23.00;99.90;;;;;;5026284;28;20064;-35
2022/06/26 11:09:43;;;;;;;3.75;2.50;;;23.10;99.90;;;;;;5026191;28;20626;-34
2022/06/26 11:12:09;;;;;;;5.90;2.72;;;23.10;99.90;;;;;;5026577;28;20029;-35
2022/06/26 11:14:35;;;;;;;2.80;2.50;;;23.10;99.90;;;;;;5025202;28;20022;-34
2022/06/26 11:17:00;;;;;;;4.93;3.20;;;23.10;99.90;;;;;;5025479;28;20026;-36
2022/06/26 11:20:46;;;;;;;2.95;2.22;;;23.20;99.90;;;;;;5024242;28;20029;-35
2022/06/26 11:22:22;;;;;;;2.47;2.05;;;23.20;99.90;;;;;;5018253;28;20064;-36
2022/06/26 11:24:52;;;;;;;3.17;2.70;;;23.30;99.90;;;;;;5025278;28;20018;-36
2022/06/26 11:27:36;;;;;;;4.00;2.47;;;23.30;99.90;;;;;;5023450;28;20067;-36
2022/06/26 11:30:02;;;;;;;2.70;2.22;;;23.30;99.90;;;;;;5013212;28;20030;-36
2022/06/26 11:32:28;;;;;;;5.50;2.97;;;23.40;99.90;;;;;;5025224;28;20465;-36
2022/06/26 11:34:55;;;;;;;2.85;2.33;;;23.30;99.80;;;;;;5024684;28;20079;-35
2022/06/26 11:37:36;;;;;;;3.13;2.00;;;23.30;99.80;;;;;;5025428;28;20116;-36
2022/06/26 11:40:15;;;;;;;3.10;1.55;;;23.20;99.80;;;;;;5025364;28;20036;-37
2022/06/26 11:42:41;;;;;;;1.98;1.55;;;23.20;99.80;;;;;;5014741;28;20033;-37
2022/06/26 11:45:07;;;;;;;1.67;1.58;;;23.20;99.40;;;;;;5025804;28;20032;-35
2022/06/26 11:47:34;;;;;;;2.40;1.65;;;23.10;99.50;;;;;;5025830;28;20035;-37
2022/06/26 11:50:00;;;;;;;3.13;1.65;;;23.10;99.70;;;;;;5025906;28;20491;-35
2022/06/26 11:52:25;;;;;;;2.72;2.00;;;23.10;99.30;;;;;;5024851;28;20025;-35
2022/06/26 11:54:59;;;;;;;2.22;1.67;;;23.10;99.40;;;;;;5025374;28;20037;-36
2022/06/26 11:57:25;;;;;;;3.20;2.28;;;23.20;99.50;;;;;;5025334;28;20476;-35
2022/06/26 11:59:51;;;;;;;2.33;1.60;;;23.20;99.30;;;;;;5025213;28;20056;-35
2022/06/26 12:02:21;;;;;;;4.15;2.15;;;23.10;99.40;;;;;;5024647;28;20025;-36
2022/06/26 12:04:57;;;;;;;3.83;2.00;;;23.20;99.60;;;;;;5025217;28;20022;-35
2022/06/26 12:07:22;;;;;;;2.00;1.80;;;23.20;99.80;;;;;;5025020;28;20045;-35
2022/06/26 12:09:48;;;;;;;2.72;2.10;;;23.30;99.80;;;;;;5025217;28;20017;-35
2022/06/26 12:12:13;;;;;;;4.80;2.15;;;23.20;99.50;;;;;;5025435;28;20037;-36
2022/06/26 12:14:49;;;;;;;2.58;1.48;;;23.20;99.30;;;;;;5025271;28;20037;-38
2022/06/26 12:17:24;;;;;;;3.65;1.70;;;23.10;99.60;;;;;;5028693;28;20108;-36
2022/06/26 12:19:50;;;;;;;2.03;1.45;;;23.10;99.60;;;;;;5029964;28;20025;-35
2022/06/26 12:22:27;;;;;;;2.70;1.90;;;23.00;99.60;;;;;;5029098;28;20029;-35
2022/06/26 12:24:55;;;;;;;2.35;1.48;;;23.00;99.40;;;;;;5028386;28;20061;-37
2022/06/26 12:27:21;;;;;;;1.92;1.63;;;22.90;99.40;;;;;;5028517;28;20017;-36
2022/06/26 12:29:47;;;;;;;3.25;1.80;;;22.90;99.20;;;;;;5027171;28;20048;-36
2022/06/26 12:32:12;;;;;;;2.50;1.70;;;22.80;99.30;;;;;;5028296;28;20072;-35
2022/06/26 12:34:38;;;;;;;1.77;1.45;;;22.70;99.50;;;;;;5029012;28;20072;-36
2022/06/26 12:37:03;;;;;;;2.60;1.85;;;22.70;99.60;;;;;;5028446;28;20362;-35
2022/06/26 12:39:29;;;;;;;2.28;1.60;;;22.60;99.60;;;;;;5028090;28;20423;-35
2022/06/26 12:41:54;;;;;;;2.78;1.80;;;22.50;99.60;;;;;;5029140;28;20028;-35
2022/06/26 12:44:20;;;;;;;2.30;1.60;;;22.40;99.70;;;;;;5028135;28;20037;-36
2022/06/26 12:46:46;;;;;;;2.45;1.60;;;22.30;99.70;;;;;;5028682;28;20108;-39
2022/06/26 12:49:11;;;;;;;3.13;1.70;;;22.30;99.80;;;;;;5029482;28;20083;-35
2022/06/26 12:51:37;;;;;;;1.63;1.52;;;22.20;99.90;;;;;;5028068;28;20083;-36
2022/06/26 12:54:02;;;;;;;2.38;1.90;;;22.10;99.90;;;;;;5028219;28;20026;-34
2022/06/26 12:56:28;;;;;;;4.70;1.70;;;22.00;99.90;;;;;;5028854;28;20140;-36
2022/06/26 12:58:54;;;;;;;1.88;1.50;;;22.00;99.90;;;;;;5028111;28;20051;-36